Time;durP1;ratioP1;P1;durP2;ratioP2;P2;SDS_P1;SDS_P2;PMS_P1;PMS_P2;Temp;Humidity;BMP_temperature;BMP_pressure;BME280_temperature;BME280_humidity;BME280_pressure;Samples;Min_cycle;Max_cycle;Signal;HPM_P1;HPM_P2
2022/04/28 00:01:49;;;;;;;15.95;8.18;;;;;;;11.37;100.00;93063.56;4992520;28;20061;-87
2022/04/28 00:04:19;;;;;;;17.90;8.02;;;;;;;11.09;100.00;93018.63;4992219;28;20061;-86
2022/04/28 00:06:49;;;;;;;16.27;8.05;;;;;;;11.04;100.00;93011.59;4992876;28;20433;-86
2022/04/28 00:09:19;;;;;;;14.07;7.72;;;;;;;11.07;100.00;93034.25;4992956;28;20137;-86
2022/04/28 00:11:51;;;;;;;18.42;8.32;;;;;;;11.13;100.00;93030.06;4992343;28;20046;-86
2022/04/28 00:14:21;;;;;;;13.82;7.68;;;;;;;11.53;100.00;93092.25;4992436;28;20498;-86
2022/04/28 00:16:55;;;;;;;17.33;8.95;;;;;;;11.05;100.00;93030.34;4992399;28;20460;-86
2022/04/28 00:19:33;;;;;;;15.20;8.52;;;;;;;11.49;100.00;93099.63;4992061;28;20050;-86
2022/04/28 00:22:04;;;;;;;20.60;9.23;;;;;;;11.52;100.00;93106.91;4992188;28;20054;-86
2022/04/28 00:24:42;;;;;;;13.70;8.23;;;;;;;11.47;100.00;93110.13;4991934;28;20050;-87
2022/04/28 00:27:20;;;;;;;14.90;7.70;;;;;;;11.49;100.00;93105.53;4992105;28;20401;-87
2022/04/28 00:29:58;;;;;;;17.42;8.23;;;;;;;11.03;100.00;93029.78;4992218;28;20396;-88
2022/04/28 00:32:36;;;;;;;13.43;7.10;;;;;;;11.54;100.00;93112.63;4991876;28;20052;-87
2022/04/28 00:35:19;;;;;;;13.82;7.70;;;;;;;11.49;100.00;93107.34;4992060;28;20050;-87
2022/04/28 00:37:57;;;;;;;15.70;8.00;;;;;;;11.42;100.00;93094.56;4991782;28;20053;-87
2022/04/28 00:40:33;;;;;;;16.05;8.20;;;;;;;11.17;100.00;93056.09;4991877;28;20050;-87
2022/04/28 00:45:52;;;;;;;16.48;8.35;;;;;;;11.53;100.00;93105.13;4991305;28;20049;-88
2022/04/28 00:51:21;;;;;;;16.08;8.13;;;;;;;11.22;100.00;93059.59;4991218;28;20061;-86
2022/04/28 00:53:59;;;;;;;17.35;8.95;;;;;;;11.49;100.00;93087.53;4991689;28;20074;-86
2022/04/28 00:56:30;;;;;;;15.90;9.35;;;;;;;11.69;100.00;93122.53;4991151;28;20146;-86
2022/04/28 00:59:02;;;;;;;17.02;8.63;;;;;;;11.01;100.00;93029.22;4991114;28;20500;-86
2022/04/28 01:01:35;;;;;;;18.00;9.45;;;;;;;11.13;100.00;93045.47;4991542;28;20046;-86
2022/04/28 01:04:07;;;;;;;24.88;10.30;;;;;;;11.12;100.00;93037.97;4990712;28;20053;-86
2022/04/28 01:06:43;;;;;;;20.95;10.05;;;;;;;11.58;100.00;93110.41;4989119;28;20078;-86
2022/04/28 01:09:13;;;;;;;20.17;9.80;;;;;;;11.67;100.00;93123.75;4991289;28;20437;-86
2022/04/28 01:11:48;;;;;;;22.35;9.57;;;;;;;11.58;100.00;93124.03;4991557;28;20145;-86
2022/04/28 01:14:18;;;;;;;23.17;10.65;;;;;;;11.05;100.00;93040.63;4990928;28;20046;-87
2022/04/28 01:16:55;;;;;;;18.05;9.75;;;;;;;11.52;100.00;93116.41;4991577;28;20138;-87
2022/04/28 01:19:32;;;;;;;19.00;9.95;;;;;;;11.20;100.00;93071.88;4991217;28;20070;-87
2022/04/28 01:22:04;;;;;;;24.10;10.68;;;;;;;11.22;100.00;93058.81;4980905;28;20046;-86
2022/04/28 01:24:54;;;;;;;20.88;10.27;;;;;;;11.72;100.00;93131.59;5003898;28;20054;-88
2022/04/28 01:27:34;;;;;;;23.02;11.02;;;;;;;11.07;100.00;93044.53;5003898;28;20048;-87
2022/04/28 01:30:07;;;;;;;19.65;10.48;;;;;;;11.46;100.00;93124.00;4994487;28;20081;-87
2022/04/28 01:32:38;;;;;;;17.58;8.35;;;;;;;10.63;100.00;93039.50;4990272;28;20050;-88
2022/04/28 01:35:14;;;;;;;15.27;8.68;;;;;;;10.59;100.00;93061.47;4990703;28;20054;-86
2022/04/28 01:37:47;;;;;;;10.65;6.85;;;;;;;10.89;100.00;93126.81;4990361;28;20798;-88
2022/04/28 01:40:25;;;;;;;14.60;7.68;;;;;;;11.04;100.00;93136.72;4989793;28;20137;-87
2022/04/28 01:42:53;;;;;;;14.35;8.93;;;;;;;11.16;100.00;93137.56;4990159;28;20043;-84
2022/04/28 01:45:21;;;;;;;12.50;7.45;;;;;;;11.14;100.00;93125.94;4991003;28;20074;-87
2022/04/28 01:47:48;;;;;;;12.27;7.90;;;;;;;11.26;100.00;93131.97;4990809;28;20065;-84
2022/04/28 01:50:25;;;;;;;13.18;8.20;;;;;;;10.89;100.00;93067.69;4990087;28;20050;-87
2022/04/28 01:55:57;;;;;;;17.42;9.30;;;;;;;11.43;100.00;93133.94;4989492;28;20530;-88
2022/04/28 01:58:35;;;;;;;18.63;9.02;;;;;;;11.46;100.00;93138.63;4988829;28;20038;-89
2022/04/28 02:01:08;;;;;;;21.17;9.85;;;;;;;10.98;100.00;93078.47;4988543;28;20042;-87
2022/04/28 02:03:36;;;;;;;17.55;8.55;;;;;;;11.10;100.00;93094.75;4990600;28;20433;-87
2022/04/28 02:06:12;;;;;;;19.83;8.95;;;;;;;11.04;100.00;93070.69;4990832;28;20045;-87
2022/04/28 02:08:59;;;;;;;23.63;10.02;;;;;;;11.12;100.00;93085.03;4989903;28;20100;-87
2022/04/28 02:11:35;;;;;;;13.48;7.28;;;;;;;11.08;100.00;93086.47;4989264;28;20466;-87
2022/04/28 02:14:11;;;;;;;13.20;8.15;;;;;;;11.00;100.00;93081.59;5007689;28;20050;-88
2022/04/28 02:16:39;;;;;;;;;;;;;;;11.56;100.00;93135.53;4994590;28;20070;-86
2022/04/28 02:19:15;;;;;;;12.55;6.93;;;;;;;11.44;100.00;93131.13;4990466;28;20004;-87
2022/04/28 02:21:51;;;;;;;8.18;5.40;;;;;;;11.05;100.00;93074.03;4988527;28;20046;-87
2022/04/28 02:24:27;;;;;;;10.13;5.82;;;;;;;11.50;100.00;93143.13;4987529;28;20501;-87
2022/04/28 02:27:01;;;;;;;9.98;6.53;;;;;;;11.05;100.00;93064.56;4989790;28;20049;-87
2022/04/28 02:29:37;;;;;;;8.13;5.22;;;;;;;11.62;100.00;93156.03;4989741;28;20042;-88
2022/04/28 02:32:15;;;;;;;7.65;5.65;;;;;;;11.01;100.00;93085.78;4988290;28;20501;-87
2022/04/28 02:34:42;;;;;;;9.65;6.53;;;;;;;11.12;100.00;93133.88;4987966;28;20051;-86
2022/04/28 02:37:09;;;;;;;10.35;6.15;;;;;;;10.63;100.00;93078.03;4990532;28;20071;-86
2022/04/28 02:39:37;;;;;;;12.30;6.25;;;;;;;11.00;100.00;93151.78;4990074;28;20038;-86
2022/04/28 02:42:05;;;;;;;9.20;6.43;;;;;;;10.41;100.00;93073.28;4990374;28;20394;-87
2022/04/28 02:44:32;;;;;;;9.80;6.82;;;;;;;10.30;100.00;93038.03;4990271;28;20042;-88
2022/04/28 02:47:13;;;;;;;11.52;7.63;;;;;;;10.24;100.00;93072.25;4990449;28;20068;-88
2022/04/28 02:49:54;;;;;;;11.73;7.30;;;;;;;9.71;100.00;92987.78;4987289;28;20053;-88
2022/04/28 02:52:34;;;;;;;7.75;6.30;;;;;;;10.45;100.00;93083.94;4989457;28;20211;-88
2022/04/28 02:55:18;;;;;;;11.52;7.15;;;;;;;10.88;100.00;93144.00;4987574;28;20042;-88
2022/04/28 02:57:57;;;;;;;9.07;7.00;;;;;;;10.50;100.00;93088.44;4987845;28;20146;-87
2022/04/28 03:00:37;;;;;;;8.80;7.13;;;;;;;10.70;100.00;93103.69;4987794;28;20050;-88
2022/04/28 03:03:17;;;;;;;7.80;6.63;;;;;;;11.05;100.00;93130.59;4988166;28;20049;-88
2022/04/28 03:11:44;;;;;;;8.40;6.38;;;;;;;11.17;100.00;93146.09;4988249;28;20104;-88
2022/04/28 03:14:24;;;;;;;11.63;7.18;;;;;;;11.29;100.00;93159.03;4988777;28;20058;-88
2022/04/28 03:17:06;;;;;;;7.63;6.55;;;;;;;10.76;100.00;93066.84;4992875;28;20058;-89
2022/04/28 03:19:46;;;;;;;9.38;6.72;;;;;;;11.50;100.00;93173.22;4992724;28;20053;-89
2022/04/28 03:22:15;;;;;;;8.57;6.25;;;;;;;10.89;100.00;93060.78;4992609;28;20399;-88
2022/04/28 03:24:42;;;;;;;8.75;6.43;;;;;;;11.77;100.00;93171.09;4990567;28;20047;-87
2022/04/28 03:27:12;;;;;;;10.55;6.57;;;;;;;11.90;100.00;93184.81;4991854;28;20047;-87
2022/04/28 03:29:39;;;;;;;9.73;7.07;;;;;;;11.17;100.00;93067.19;4992793;28;20054;-87
2022/04/28 03:32:08;;;;;;;8.68;7.72;;;;;;;11.84;100.00;93167.66;4992571;28;20481;-87
2022/04/28 03:34:36;;;;;;;10.38;7.25;;;;;;;11.72;100.00;93144.47;4992669;28;20038;-86
2022/04/28 03:37:03;;;;;;;9.15;6.60;;;;;;;12.10;100.00;93187.16;4992895;28;20140;-87
2022/04/28 03:39:31;;;;;;;9.30;7.43;;;;;;;12.12;100.00;93190.28;4992924;28;20397;-87
2022/04/28 03:42:00;;;;;;;9.10;7.55;;;;;;;12.05;100.00;93184.44;4990316;28;20074;-88
2022/04/28 03:44:29;;;;;;;7.45;6.65;;;;;;;11.88;100.00;93148.19;4992345;28;20042;-87
2022/04/28 03:46:56;;;;;;;9.55;8.07;;;;;;;12.04;100.00;93175.16;4992347;28;20042;-87
2022/04/28 03:49:24;;;;;;;11.68;10.20;;;;;;;12.02;100.00;93183.06;4992378;28;20053;-88
2022/04/28 03:51:51;;;;;;;12.68;10.95;;;;;;;11.77;100.00;93137.63;4992751;28;20078;-87
2022/04/28 03:54:18;;;;;;;16.40;11.80;;;;;;;11.76;100.00;93133.50;4992628;28;20049;-87
2022/04/28 03:56:45;;;;;;;13.68;11.98;;;;;;;11.78;100.00;93128.16;4992554;28;20046;-87
2022/04/28 03:59:12;;;;;;;13.73;12.27;;;;;;;11.91;100.00;93145.19;4992778;28;20141;-87
2022/04/28 04:01:40;;;;;;;14.95;12.65;;;;;;;12.43;100.00;93209.06;4992641;28;20081;-87
2022/04/28 04:04:07;;;;;;;14.57;11.77;;;;;;;12.03;100.00;93145.22;4992402;28;20124;-86
2022/04/28 04:06:34;;;;;;;14.70;11.85;;;;;;;12.57;100.00;93211.44;4991984;28;20046;-87
2022/04/28 04:09:01;;;;;;;12.45;9.68;;;;;;;12.36;100.00;93181.84;4992186;28;20042;-87
2022/04/28 04:11:28;;;;;;;11.38;9.18;;;;;;;12.60;100.00;93223.91;4992465;28;20121;-86
2022/04/28 04:13:55;;;;;;;8.57;7.45;;;;;;;12.08;100.00;93149.75;4992212;28;20053;-87
2022/04/28 04:16:23;;;;;;;10.93;8.88;;;;;;;12.22;100.00;93214.72;4991962;28;20050;-86
2022/04/28 04:18:51;;;;;;;11.70;9.02;;;;;;;12.04;100.00;93198.34;4992043;28;20120;-86
2022/04/28 04:21:19;;;;;;;12.63;8.20;;;;;;;12.12;100.00;93221.19;4989212;28;20049;-86
2022/04/28 04:23:46;;;;;;;16.20;10.30;;;;;;;11.83;100.00;93202.13;4991712;28;20038;-86
2022/04/28 04:26:13;;;;;;;10.30;7.43;;;;;;;11.73;100.00;93200.84;4991740;28;20077;-87
2022/04/28 04:28:40;;;;;;;9.25;7.85;;;;;;;11.30;100.00;93140.78;4987019;28;20389;-87
2022/04/28 04:33:52;;;;;;;8.73;7.03;;;;;;;11.12;100.00;93169.88;5011418;28;20056;-87
2022/04/28 04:36:19;;;;;;;9.50;7.28;;;;;;;11.14;100.00;93179.94;5008921;28;20124;-86
2022/04/28 04:38:46;;;;;;;9.35;7.32;;;;;;;11.39;100.00;93230.53;5011087;28;20155;-87
2022/04/28 04:41:13;;;;;;;8.10;7.30;;;;;;;11.29;100.00;93228.44;5011408;28;20057;-87
2022/04/28 04:43:41;;;;;;;8.98;7.10;;;;;;;11.16;100.00;93204.41;5011634;28;20124;-88
2022/04/28 04:46:08;;;;;;;7.45;6.45;;;;;;;11.12;100.00;93238.50;5011046;28;20050;-88
2022/04/28 04:48:36;;;;;;;6.72;6.03;;;;;;;10.95;100.00;93239.81;5010849;28;20033;-88
2022/04/28 04:51:04;;;;;;;8.18;6.68;;;;;;;10.60;100.00;93181.19;5011492;28;20073;-88
2022/04/28 04:53:32;;;;;;;7.07;6.38;;;;;;;10.80;100.00;93222.13;5011405;28;21458;-88
2022/04/28 04:56:00;;;;;;;10.23;5.93;;;;;;;10.91;100.00;93236.09;5009288;28;20041;-88
2022/04/28 04:58:27;;;;;;;7.22;4.55;;;;;;;10.50;100.00;93170.59;5029216;28;20042;-88
2022/04/28 05:00:58;;;;;;;5.47;4.65;;;;;;;10.49;100.00;93184.44;5018062;28;20053;-89
2022/04/28 05:03:26;;;;;;;5.88;4.15;;;;;;;10.37;100.00;93189.47;5010994;28;20046;-88
2022/04/28 05:05:56;;;;;;;4.65;3.72;;;;;;;10.77;100.00;93248.25;5011420;28;20081;-88
2022/04/28 05:08:25;;;;;;;5.15;4.40;;;;;;;10.92;100.00;93253.09;5011159;28;20056;-88
2022/04/28 05:10:53;;;;;;;4.25;3.80;;;;;;;10.89;100.00;93257.84;5010803;28;20053;-87
2022/04/28 05:13:20;;;;;;;3.60;3.00;;;;;;;10.06;100.00;93155.09;5011201;28;20099;-87
2022/04/28 05:15:47;;;;;;;5.13;3.42;;;;;;;10.80;100.00;93260.69;5010977;28;20050;-88
2022/04/28 05:18:15;;;;;;;4.88;3.10;;;;;;;11.01;100.00;93273.41;5010623;28;20054;-88
2022/04/28 05:20:43;;;;;;;5.25;4.28;;;;;;;11.20;100.00;93275.00;5010684;28;20061;-88
2022/04/28 05:23:10;;;;;;;6.15;4.20;;;;;;;10.86;100.00;93212.00;5011173;28;20084;-88
2022/04/28 05:25:40;;;;;;;4.40;3.42;;;;;;;11.17;100.00;93274.63;5010739;28;20049;-88
2022/04/28 05:28:11;;;;;;;3.88;2.30;;;;;;;10.58;100.00;93228.63;5010948;28;20046;-89
2022/04/28 05:30:43;;;;;;;3.03;2.35;;;;;;;10.89;100.00;93284.34;5010753;28;20073;-88
2022/04/28 05:33:13;;;;;;;5.55;4.20;;;;;;;10.86;100.00;93284.75;5010491;28;20049;-88
2022/04/28 05:35:43;;;;;;;4.20;3.40;;;;;;;10.68;100.00;93219.47;5010338;28;20509;-87
2022/04/28 05:38:11;;;;;;;4.53;3.45;;;;;;;10.62;100.00;93217.75;5010127;28;20048;-87
2022/04/28 05:41:00;;;;;;;3.13;2.40;;;;;;;10.14;100.00;93199.25;5010096;28;20141;-91
2022/04/28 05:46:25;;;;;;;3.35;2.42;;;;;;;10.81;100.00;93293.09;5010338;28;20092;-89
2022/04/28 05:48:53;;;;;;;3.42;2.33;;;;;;;10.27;100.00;93216.38;5010578;28;20444;-87
2022/04/28 05:51:21;;;;;;;2.88;2.40;;;;;;;10.15;100.00;93203.41;5010568;28;20068;-87
2022/04/28 05:53:55;;;;;;;3.25;2.50;;;;;;;10.42;100.00;93249.44;5010560;28;20046;-88
2022/04/28 05:56:25;;;;;;;6.90;4.22;;;;;;;10.31;100.00;93228.81;5010461;28;20137;-87
2022/04/28 05:58:57;;;;;;;4.38;3.15;;;;;;;10.02;100.00;93234.28;5010146;28;20128;-88
2022/04/28 06:01:28;;;;;;;4.43;3.42;;;;;;;10.23;100.00;93232.41;5010165;28;20138;-88
2022/04/28 06:04:00;;;;;;;6.05;3.22;;;;;;;9.88;100.00;93171.97;5010165;28;20556;-88
2022/04/28 06:06:35;;;;;;;5.13;3.30;;;;;;;10.63;100.00;93287.88;5009934;28;20459;-87
2022/04/28 06:09:10;;;;;;;4.32;3.17;;;;;;;10.27;100.00;93252.31;5010051;28;20045;-88
2022/04/28 06:11:47;;;;;;;6.30;4.55;;;;;;;10.38;100.00;93245.72;5009874;28;20406;-88
2022/04/28 06:14:19;;;;;;;6.10;3.58;;;;;;;10.80;100.00;93301.03;5010131;28;20049;-88
2022/04/28 06:16:55;;;;;;;3.70;2.50;;;;;;;10.67;100.00;93325.81;5009993;28;20050;-89
2022/04/28 06:19:31;;;;;;;5.95;3.38;;;;;;;10.14;100.00;93250.59;5009794;28;20711;-90
2022/04/28 06:22:08;;;;;;;11.27;6.07;;;;;;;10.75;100.00;93319.63;5009717;28;20046;-89
2022/04/28 06:24:40;;;;;;;5.20;2.85;;;;;;;10.76;100.00;93321.22;5009594;28;20053;-88
2022/04/28 06:27:13;;;;;;;4.18;2.72;;;;;;;9.89;100.00;93205.13;5010373;28;20493;-88
2022/04/28 06:29:50;;;;;;;3.60;2.25;;;;;;;10.84;100.00;93317.59;5010220;28;20104;-89
2022/04/28 06:32:19;;;;;;;4.72;2.40;;;;;;;10.95;100.00;93327.22;5009677;28;20383;-87
2022/04/28 06:34:46;;;;;;;5.38;3.08;;;;;;;10.52;100.00;93249.00;5010161;28;20056;-87
2022/04/28 06:37:14;;;;;;;3.90;2.00;;;;;;;11.03;100.00;93323.59;5010033;28;20070;-88
2022/04/28 06:39:42;;;;;;;2.20;1.58;;;;;;;10.90;100.00;93324.47;5009921;28;20056;-87
2022/04/28 06:42:11;;;;;;;2.97;1.75;;;;;;;10.43;100.00;93284.44;5010783;28;20054;-90
2022/04/28 06:44:39;;;;;;;3.75;1.75;;;;;;;10.02;100.00;93281.28;5009638;28;20450;-87
2022/04/28 06:47:06;;;;;;;4.22;2.67;;;;;;;9.71;100.00;93257.09;5010049;28;20046;-87
2022/04/28 06:49:34;;;;;;;1.95;1.25;;;;;;;9.94;100.00;93280.69;5010583;28;20141;-87
2022/04/28 06:52:01;;;;;;;3.90;1.05;;;;;;;9.83;100.00;93271.88;5014115;28;20038;-87
2022/04/28 06:54:30;;;;;;;4.07;2.78;;;;;;;9.61;100.00;93272.13;5013854;28;20046;-88
2022/04/28 06:56:57;;;;;;;5.00;2.03;;;;;;;9.82;100.00;93272.84;5013881;28;20053;-87
2022/04/28 06:59:25;;;;;;;2.05;1.25;;;;;;;10.05;100.00;93284.41;5011751;28;20042;-86
2022/04/28 07:01:52;;;;;;;2.78;1.50;;;;;;;10.65;100.00;93340.63;5012162;28;20397;-86
2022/04/28 07:04:19;;;;;;;7.50;2.35;;;;;;;10.44;100.00;93300.63;5012538;28;20057;-86
2022/04/28 07:06:46;;;;;;;6.35;3.65;;;;;;;10.17;100.00;93259.66;5013978;28;20046;-86
2022/04/28 07:09:12;;;;;;;2.30;1.35;;;;;;;10.51;100.00;93328.88;5013471;28;20042;-86
2022/04/28 07:11:39;;;;;;;2.40;1.00;;;;;;;10.73;100.00;93343.97;5013466;28;20570;-87
2022/04/28 07:14:06;;;;;;;3.17;1.70;;;;;;;10.41;100.00;93281.25;5013505;28;20045;-86
2022/04/28 07:16:34;;;;;;;4.35;1.10;;;;;;;10.11;100.00;93243.31;5013210;28;20401;-86
2022/04/28 07:19:03;;;;;;;2.38;1.33;;;;;;;10.88;100.00;93353.94;5013313;28;20050;-86
2022/04/28 07:21:30;;;;;;;2.38;1.10;;;;;;;11.07;100.00;93349.66;5013387;28;20407;-86
2022/04/28 07:23:57;;;;;;;5.00;2.22;;;;;;;11.26;100.00;93352.28;5013513;28;20149;-86
2022/04/28 07:26:25;;;;;;;4.68;2.13;;;;;;;10.79;100.00;93286.59;5013429;28;20627;-87
2022/04/28 07:28:52;;;;;;;4.90;1.33;;;;;;;11.50;100.00;93354.06;5013515;28;20389;-87
2022/04/28 07:31:19;;;;;;;2.45;1.23;;;;;;;11.61;100.00;93352.59;5013132;28;20054;-87
2022/04/28 07:33:48;;;;;;;4.53;1.35;;;;;;;11.38;100.00;93294.03;5013700;28;20058;-87
2022/04/28 07:36:16;;;;;;;2.60;1.13;;;;;;;11.56;100.00;93303.56;5013141;28;20394;-87
2022/04/28 07:38:43;;;;;;;3.15;1.10;;;;;;;11.84;100.00;93340.09;5012814;28;20053;-86
2022/04/28 07:41:12;;;;;;;2.75;1.50;;;;;;;11.93;100.00;93361.22;5023614;28;20054;-87
2022/04/28 07:43:39;;;;;;;3.65;2.05;;;;;;;12.07;100.00;93370.38;5027142;28;20049;-87
2022/04/28 07:46:06;;;;;;;5.15;1.98;;;;;;;11.81;100.00;93354.16;5013575;28;20076;-87
2022/04/28 07:48:33;;;;;;;3.33;1.80;;;;;;;11.61;100.00;93336.34;5012675;28;20398;-86
2022/04/28 07:51:01;;;;;;;3.55;1.67;;;;;;;11.81;100.00;93361.13;5012761;28;20049;-87
2022/04/28 07:53:28;;;;;;;2.10;1.08;;;;;;;11.61;100.00;93362.88;5012356;28;20057;-88
2022/04/28 07:58:39;;;;;;;3.58;1.60;;;;;;;11.44;100.00;93294.97;5012487;28;20049;-88
2022/04/28 08:01:07;;;;;;;3.45;1.50;;;;;;;12.07;100.00;93372.97;5011770;28;20066;-88
2022/04/28 08:03:34;;;;;;;2.90;1.75;;;;;;;11.66;100.00;93310.00;5011510;28;20399;-88
2022/04/28 08:06:03;;;;;;;1.75;1.38;;;;;;;11.80;100.00;93311.41;5011853;28;20049;-88
2022/04/28 08:08:30;;;;;;;3.50;1.42;;;;;;;12.38;100.00;93381.53;5011491;28;20049;-88
2022/04/28 08:10:57;;;;;;;5.50;3.10;;;;;;;11.96;100.00;93301.56;5011299;28;20489;-88
2022/04/28 08:13:23;;;;;;;3.63;1.70;;;;;;;12.01;100.00;93306.84;5011534;28;20081;-88
2022/04/28 08:15:50;;;;;;;1.60;1.00;;;;;;;12.57;100.00;93378.94;5011701;28;20048;-89
2022/04/28 08:18:17;;;;;;;3.20;1.83;;;;;;;12.37;100.00;93377.38;5010608;28;20056;-88
2022/04/28 08:20:44;;;;;;;1.65;1.02;;;;;;;11.50;100.00;93322.41;5010252;28;20413;-88
2022/04/28 08:23:12;;;;;;;2.72;1.45;;;;;;;10.92;100.00;93294.19;5010908;28;20050;-88
2022/04/28 08:25:40;;;;;;;2.95;2.00;;;;;;;11.16;100.00;93353.53;5011596;28;20428;-86
2022/04/28 08:28:07;;;;;;;3.70;2.40;;;;;;;11.23;100.00;93376.63;5010997;28;20050;-87
2022/04/28 08:30:34;;;;;;;3.65;1.80;;;;;;;11.04;100.00;93343.16;5011353;28;20209;-87
2022/04/28 08:33:01;;;;;;;2.38;1.55;;;;;;;11.27;100.00;93379.56;5011271;28;20045;-87
2022/04/28 08:35:29;;;;;;;1.90;0.98;;;;;;;10.45;100.00;93288.59;5011395;28;20046;-87
2022/04/28 08:37:56;;;;;;;1.52;1.02;;;;;;;10.97;100.00;93378.38;5011447;28;20140;-86
2022/04/28 08:40:26;;;;;;;3.22;2.30;;;;;;;10.86;100.00;93376.47;5011041;28;20042;-87
2022/04/28 08:42:55;;;;;;;4.38;2.75;;;;;;;10.74;100.00;93363.53;5011151;28;20163;-86
2022/04/28 08:45:27;;;;;;;5.25;3.15;;;;;;;10.19;100.00;93298.78;5010726;28;20497;-87
2022/04/28 08:47:57;;;;;;;9.18;4.20;;;;;;;10.25;100.00;93308.22;5010652;28;20153;-87
2022/04/28 08:50:24;;;;;;;13.27;5.88;;;;;;;10.74;100.00;93387.41;5011156;28;20045;-86
2022/04/28 08:52:54;;;;;;;6.38;3.55;;;;;;;10.72;100.00;93368.06;5010675;28;20057;-86
2022/04/28 08:55:21;;;;;;;5.82;3.00;;;;;;;10.59;100.00;93374.84;5009751;28;20058;-85
2022/04/28 08:57:50;;;;;;;4.05;2.28;;;;;;;10.61;100.00;93388.28;5010947;28;20112;-85
2022/04/28 09:00:17;;;;;;;2.60;1.20;;;;;;;10.32;100.00;93382.63;5010697;28;20052;-86
2022/04/28 09:02:44;;;;;;;3.78;2.40;;;;;;;10.36;100.00;93391.50;5010559;28;20125;-85
2022/04/28 09:05:11;;;;;;;3.50;1.95;;;;;;;10.11;100.00;93335.72;5010475;28;20058;-85
2022/04/28 09:07:40;;;;;;;2.53;1.67;;;;;;;10.12;100.00;93326.22;5010912;28;20051;-86
2022/04/28 09:10:26;;;;;;;1.70;1.10;;;;;;;10.18;100.00;93389.59;5010484;28;20042;-85
2022/04/28 09:15:44;;;;;;;1.80;1.40;;;;;;;10.39;100.00;93391.13;5009855;28;20101;-85
2022/04/28 09:18:11;;;;;;;2.40;1.30;;;;;;;10.36;100.00;93400.97;5010474;28;20052;-85
2022/04/28 09:20:38;;;;;;;2.50;1.75;;;;;;;9.94;100.00;93332.81;5010328;28;20046;-85
2022/04/28 09:23:05;;;;;;;1.88;1.40;;;;;;;10.48;100.00;93394.28;5010209;28;20049;-86
2022/04/28 09:25:32;;;;;;;3.05;2.08;;;;;;;10.33;100.00;93394.50;5010298;28;20046;-85
2022/04/28 09:28:03;;;;;;;2.05;1.45;;;;;;;10.29;100.00;93390.75;5010259;28;20564;-86
2022/04/28 09:30:35;;;;;;;2.53;1.77;;;;;;;10.25;100.00;93374.16;5010078;28;20054;-85
2022/04/28 09:33:09;;;;;;;2.65;1.50;;;;;;;10.37;100.00;93382.03;5010347;28;20130;-85
2022/04/28 09:35:36;;;;;;;3.30;1.95;;;;;;;10.75;100.00;93391.56;5009884;28;20551;-85
2022/04/28 09:38:02;;;;;;;3.50;2.35;;;;;;;10.55;100.00;93365.97;5010255;28;20041;-86
2022/04/28 09:43:15;;;;;;;2.80;1.65;;;;;;;10.24;100.00;93346.94;5009774;28;20092;-84
2022/04/28 09:45:45;;;;;;;2.20;1.80;;;;;;;10.54;100.00;93346.41;5009896;28;20055;-86
2022/04/28 09:48:12;;;;;;;1.92;1.30;;;;;;;10.44;100.00;93336.59;5010185;28;20065;-86
2022/04/28 09:50:41;;;;;;;3.47;2.40;;;;;;;10.59;100.00;93335.53;5010082;28;20100;-86
2022/04/28 09:53:08;;;;;;;4.82;2.03;;;;;;;11.30;100.00;93385.06;5010027;28;20049;-86
2022/04/28 09:55:35;;;;;;;4.97;2.80;;;;;;;11.49;100.00;93370.50;5009803;28;20132;-85
2022/04/28 09:58:05;;;;;;;3.15;2.08;;;;;;;11.31;100.00;93345.53;5009923;28;20045;-86
2022/04/28 10:00:34;;;;;;;4.72;1.98;;;;;;;11.86;100.00;93389.59;5009859;28;20390;-86
2022/04/28 10:03:02;;;;;;;4.00;2.78;;;;;;;11.90;100.00;93381.22;5009957;28;20133;-86
2022/04/28 10:05:30;;;;;;;2.80;2.08;;;;;;;11.54;100.00;93359.59;5009965;28;20050;-86
2022/04/28 10:07:58;;;;;;;4.95;3.45;;;;;;;11.47;100.00;93325.41;5009641;28;20046;-86
2022/04/28 10:10:27;;;;;;;7.88;5.50;;;;;;;11.11;100.00;93322.53;5010363;28;20038;-86
2022/04/28 10:12:56;;;;;;;3.03;2.38;;;;;;;11.47;100.00;93362.22;5009557;28;20046;-85
2022/04/28 10:15:24;;;;;;;6.70;4.57;;;;;;;11.67;100.00;93383.63;5010172;28;20128;-85
2022/04/28 10:17:55;;;;;;;6.60;3.63;;;;;;;10.52;100.00;93272.13;5009923;28;20046;-85
2022/04/28 10:20:30;;;;;;;7.80;4.82;;;;;;;11.23;100.00;93374.06;5009824;28;20050;-85
2022/04/28 10:23:00;;;;;;;4.93;3.70;;;;;;;11.18;100.00;93371.34;5015764;28;20050;-84
2022/04/28 10:33:48;;;;;;;5.20;3.83;;;;;;;11.26;100.00;93350.53;5013430;28;20437;-85
2022/04/28 10:36:20;;;;;;;6.40;3.35;;;;;;;11.35;100.00;93358.75;5013214;28;20104;-85
2022/04/28 10:39:08;;;;;;;4.03;3.45;;;;;;;11.63;100.00;93383.25;5013226;28;20046;-84
2022/04/28 10:41:35;;;;;;;4.50;2.63;;;;;;;11.06;100.00;93354.00;5013370;28;20137;-84
2022/04/28 10:44:17;;;;;;;4.68;3.33;;;;;;;10.79;100.00;93302.78;5013234;28;20485;-84
2022/04/28 10:46:59;;;;;;;4.50;2.85;;;;;;;11.16;100.00;93345.81;5013213;28;20046;-84
2022/04/28 10:49:28;;;;;;;4.32;3.10;;;;;;;11.25;100.00;93346.34;5013427;28;20054;-85
2022/04/28 10:51:58;;;;;;;3.97;2.67;;;;;;;11.70;100.00;93373.69;5013380;28;20095;-84
2022/04/28 10:54:26;;;;;;;6.05;3.47;;;;;;;10.74;100.00;93235.06;5013330;28;20088;-84
2022/04/28 10:57:00;;;;;;;3.92;2.70;;;;;;;11.56;100.00;93367.88;5013137;28;20188;-84
2022/04/28 10:59:34;;;;;;;4.88;3.30;;;;;;;11.47;100.00;93363.97;5013267;28;20046;-85
2022/04/28 11:02:48;;;;;;;4.05;3.03;;;;;;;11.55;100.00;93350.06;5013240;28;20050;-84
2022/04/28 11:05:31;;;;;;;5.57;3.83;;;;;;;11.55;100.00;93332.84;4993349;28;20065;-85
2022/04/28 11:08:03;;;;;;;4.95;3.45;;;;;;;11.73;100.00;93311.50;4993018;28;20104;-85
2022/04/28 11:10:30;;;;;;;5.85;3.10;;;;;;;11.85;100.00;93334.72;5009743;28;20133;-85
2022/04/28 11:13:09;;;;;;;5.40;3.95;;;;;;;12.09;100.00;93344.44;4993343;28;20042;-84
2022/04/28 11:15:37;;;;;;;4.88;3.55;;;;;;;12.48;100.00;93344.94;5001839;28;20048;-86
2022/04/28 11:18:04;;;;;;;5.47;3.30;;;;;;;12.26;100.00;93347.97;5012676;28;20038;-85
2022/04/28 11:20:33;;;;;;;5.30;3.47;;;;;;;12.29;100.00;93351.91;5012689;28;20053;-85
2022/04/28 11:23:00;;;;;;;5.25;3.90;;;;;;;12.39;100.00;93369.44;5012759;28;20120;-86
2022/04/28 11:25:27;;;;;;;6.05;3.90;;;;;;;12.60;100.00;93362.25;5012787;28;20108;-86
2022/04/28 11:27:55;;;;;;;5.20;3.53;;;;;;;12.63;100.00;93343.78;5012664;28;20046;-85
2022/04/28 11:30:24;;;;;;;9.10;6.00;;;;;;;13.16;100.00;93367.22;5012389;28;20050;-84
2022/04/28 11:32:53;;;;;;;6.10;3.85;;;;;;;12.76;100.00;93351.31;5012400;28;20046;-84
2022/04/28 11:35:22;;;;;;;5.75;4.18;;;;;;;12.69;100.00;93322.28;5011343;28;20046;-85
2022/04/28 11:37:56;;;;;;;9.60;5.90;;;;;;;13.23;100.00;93362.75;5012436;28;20112;-84
2022/04/28 11:40:24;;;;;;;4.65;3.83;;;;;;;12.55;100.00;93363.69;5012444;28;20065;-84
2022/04/28 11:42:57;;;;;;;6.57;4.88;;;;;;;12.38;100.00;93342.09;5012471;28;20424;-85
2022/04/28 11:45:42;;;;;;;5.75;4.40;;;;;;;12.54;100.00;93364.69;5012302;28;20118;-84
2022/04/28 11:48:09;;;;;;;6.38;4.50;;;;;;;12.18;100.00;93330.28;5011961;28;20386;-84
2022/04/28 11:50:37;;;;;;;8.82;5.50;;;;;;;12.77;100.00;93365.00;5012098;28;20393;-84
2022/04/28 11:53:07;;;;;;;8.38;5.53;;;;;;;12.78;100.00;93349.31;5011822;28;20042;-83
2022/04/28 11:55:38;;;;;;;7.35;5.40;;;;;;;13.00;100.00;93350.63;5011758;28;20046;-84
2022/04/28 11:58:06;;;;;;;7.95;5.07;;;;;;;13.15;100.00;93347.63;5011975;28;20068;-84
2022/04/28 12:00:37;;;;;;;7.03;4.95;;;;;;;13.12;100.00;93359.16;5012194;28;20050;-83
2022/04/28 12:03:04;;;;;;;8.82;5.20;;;;;;;13.13;100.00;93349.63;5012127;28;20123;-84
2022/04/28 12:05:33;;;;;;;7.78;4.85;;;;;;;13.06;100.00;93347.91;5011959;28;20132;-84
2022/04/28 12:08:00;;;;;;;7.47;4.70;;;;;;;12.70;100.00;93349.63;5011749;28;20467;-83
2022/04/28 12:16:00;;;;;;;7.78;5.07;;;;;;;12.73;100.00;93340.69;5011438;28;20559;-84
2022/04/28 12:21:19;;;;;;;9.10;5.15;;;;;;;12.92;100.00;93344.75;5011591;28;20156;-82
2022/04/28 12:23:50;;;;;;;8.98;5.45;;;;;;;13.05;100.00;93330.88;5011692;28;20077;-84